Date,TemperatureHighF,TemperatureAvgF,TemperatureLowF,DewpointHighF,DewpointAvgF,DewpointLowF,HumidityHigh,HumidityAvg,HumidityLow,PressureMaxIn,PressureMinIn,WindSpeedMaxMPH,WindSpeedAvgMPH,GustSpeedMaxMPH,PrecipitationSumIn
2013-1-1,23,18,10,-100,-100,-100,0,0,100,0.00,40.00,0,-999,0,0.00
2013-1-2,34,20,8,-100,-100,-100,0,0,100,0.00,40.00,0,-999,0,0.00
2013-1-3,31,20,13,-100,-100,-100,0,0,100,0.00,40.00,0,-999,0,0.00
2013-1-4,36,19,6,-100,-100,-100,0,0,100,0.00,40.00,0,-999,0,0.00
2013-1-5,36,28,21,-100,-100,-100,0,0,100,0.00,40.00,0,-999,0,0.00
2013-1-6,44,28,17,-100,-100,-100,0,0,100,0.00,40.00,0,-999,0,0.00
2013-1-7,46,37,32,-100,-100,-100,0,0,100,0.00,40.00,0,-999,0,0.00
2013-1-8,41,32,26,-100,-100,-100,0,0,100,0.00,40.00,0,-999,0,0.00
2013-1-9,48,35,24,-100,-100,-100,0,0,100,0.00,40.00,0,-999,0,0.00
2013-1-10,42,37,34,-100,-100,-100,0,0,100,0.00,40.00,0,-999,0,0.00
2013-1-11,51,45,27,-100,-100,-100,0,0,100,0.00,40.00,0,-999,0,0.00
2013-1-12,27,21,14,-100,-100,-100,0,0,100,0.00,40.00,0,-999,0,0.00
2013-1-13,25,15,10,-100,-100,-100,0,0,100,0.00,40.00,0,-999,0,0.00
2013-1-14,35,23,11,-100,-100,-100,0,0,100,0.00,40.00,0,-999,0,0.00
2013-1-15,36,26,20,-100,-100,-100,0,0,100,0.00,40.00,0,-999,0,0.00
2013-1-16,54,38,20,-100,-100,-100,0,0,100,0.00,40.00,0,-999,0,0.00
2013-1-17,53,37,26,-100,-100,-100,0,0,100,0.00,40.00,0,-999,0,0.00
2013-1-18,59,42,32,-100,-100,-100,0,0,100,0.00,40.00,0,-999,0,0.00
2013-1-19,62,43,33,-100,-100,-100,0,0,100,0.00,40.00,0,-999,0,0.00
2013-1-20,37,29,20,-100,-100,-100,0,0,100,0.00,40.00,0,-999,0,0.00
2013-1-21,44,28,17,-100,-100,-100,0,0,100,0.00,40.00,0,-999,0,0.00
2013-1-22,37,25,14,-100,-100,-100,0,0,100,0.00,40.00,0,-999,0,0.00
2013-1-23,46,33,21,-100,-100,-100,0,0,100,0.00,40.00,0,-999,0,0.00
2013-1-24,29,23,14,-100,-100,-100,0,0,100,0.00,40.00,0,-999,0,0.00
2013-1-25,56,38,20,-100,-100,-100,0,0,100,0.00,40.00,0,-999,0,0.00
2013-1-26,54,44,33,-100,-100,-100,0,0,100,0.00,40.00,0,-999,0,0.00
2013-1-27,58,46,35,-100,-100,-100,0,0,100,0.00,40.00,0,-999,0,0.00
2013-1-28,74,47,29,-100,-100,-100,0,0,100,0.00,40.00,0,-999,0,0.00
2013-1-29,38,35,31,-100,-100,-100,0,0,100,0.00,40.00,0,-999,0,0.00
2013-1-30,34,28,20,-100,-100,-100,0,0,100,0.00,40.00,0,-999,0,0.00
2013-1-31,24,20,16,-100,-100,-100,0,0,100,0.00,40.00,0,-999,0,0.00